This is the latest recevied weather packets stored in our database for station/object W5HKR. If no packets are shown the sender has not sent any weather packets the latest 1 day(s).
| Time | Temp. | Humidity | Pressure | Rain* | Wind** | Luminosity | Snow |
|---|---|---|---|---|---|---|---|
| 1778032406 | 27.22° C | 78% | 978 hPa | 0 mm | - | - | - |
| 1778032107 | 18.33° C | 91% | 990.6 hPa | 0 mm | - | - | - |
| 1778031806 | 27.78° C | 77% | 978.9 hPa | 0 mm | - | - | - |
| 1778031597 | 27.78° C | 76% | 978.4 hPa | 0 mm | - | - | - |
| 1778031508 | 18.33° C | 91% | 990.6 hPa | 0 mm | - | - | - |
| 1778031206 | 27.78° C | 76% | 978 hPa | 0 mm | - | - | - |
| 1778030905 | 27.78° C | 75% | 978 hPa | 0 mm | - | - | - |
| 1778030605 | 28.33° C | 74% | 978.3 hPa | 0 mm | - | - | - |
| 1778030516 | 28.33° C | 74% | 978.3 hPa | 0 mm | - | - | - |
| 1778030305 | 28.33° C | 73% | 978 hPa | 0 mm | - | - | - |
| 1778030006 | 18.33° C | 91% | 990.6 hPa | 0 mm | - | - | - |
| 1778029706 | 18.33° C | 91% | 990.6 hPa | 0 mm | - | - | - |
| 1778029437 | 18.33° C | 91% | 990.6 hPa | 0 mm | - | - | - |
| 1778029405 | 28.33° C | 72% | 977.6 hPa | 0 mm | - | - | - |
| 1778028805 | 28.89° C | 72% | 977.9 hPa | 0 mm | - | - | - |
| 1778028356 | 18.33° C | 91% | 990.6 hPa | 0 mm | - | - | - |
| 1778027606 | 28.89° C | 71% | 977.6 hPa | 0 mm | - | - | - |
| 1778027308 | 18.33° C | 91% | 990.6 hPa | 0 mm | - | - | - |
| 1778027276 | 18.33° C | 91% | 990.6 hPa | 0 mm | - | - | - |
| 1778027005 | 28.89° C | 71% | 978 hPa | 0 mm | - | - | - |
| 1778026706 | 29.44° C | 71% | 978 hPa | 0 mm | - | - | - |
| 1778026405 | 18.33° C | 91% | 990.6 hPa | 0 mm | - | - | - |
| 1778026196 | 29.44° C | 70% | 977.4 hPa | 0 mm | - | - | - |
| 1778026106 | 29.44° C | 70% | 977.6 hPa | 0 mm | - | - | - |
| 1778025506 | 18.33° C | 91% | 990.6 hPa | 0 mm | - | - | - |
* Rain latest hour (hover to see other rain measurements)
** Current wind speed in m/s (hover to see current wind gust speed)